Airfield :
LOGIN :

Register | Disclaimer

   EN    FR    IT 

 










Legend :    VFR   Marginal VFR   IFR   Intensive IFR   Very Intensive IFR
Visi :
Ceiling :
>= 8 km
>= 3000ft
5 to 8 km
1000 to 3000 ft
1500m to 5 km
500 to 1000 ft
800 to 1500m
200 to 500 ft
< 800m
< 200 ft
Symbols :   Thunderstorms  Fog  Heavy snow  Heavy precipitations  Wind > 20 kt
SIGMETs :     Misc.  Thunderstorms  Icing  Turbulence  Mountain Waves  Volcanic Ashes






- Airport Elevation : 1558 ft
- IATA code : IOA


LGIO - Ioannina

CURRENT METAR :
  • 081250Z AUTO 07010KT 020V100 //// // ////// 16/M05 Q1021 RE//

EXPIRED METARs :
  • 081220Z AUTO 06014KT 020V090 //// // ////// 16/M05 Q1021 RE//
  • 081150Z 06013G23KT 9999 FEW080 17/M06 Q1022
  • 081050Z 05010G20KT 9999 FEW080 15/M08 Q1022
  • 081020Z VRB12G22KT 9999 FEW080 15/M08 Q1022
  • 080950Z 09013G23KT 020V140 9999 FEW030 15/M07 Q1022

TAF TAF LGIO
Valid from the 08 at 12:00 until the 08 at 21:00 UTC


081100Z 0812/0821 05010KT CAVOK
TEMPO 0812/0816 05010G20KT



MET'MAP, your aeronautical weather chart ! - Copyright ORBIFLY December 2007 - Disclaimer

ORBIFLY MET'MAP TEAM :

Programming & Development : Alexandra Zaïnal
Concept & original design : Baudouin d'Aumeries
Assistance for programming : Marc-Olivier Méhu
Technical & hardware support : Manuel Goepfert

Contact : metmap@orbifly.com




SOURCES & CREDITS :

   NOAA